Time;durP1;ratioP1;P1;durP2;ratioP2;P2;SDS_P1;SDS_P2;PMS_P1;PMS_P2;Temp;Humidity;BMP_temperature;BMP_pressure;BME280_temperature;BME280_humidity;BME280_pressure;Samples;Min_cycle;Max_cycle;Signal;HPM_P1;HPM_P2
2022/08/11 00:01:58;;;;;;;3.92;1.67;;;;;;;17.66;51.64;96316.75;5005831;28;24528;-72
2022/08/11 00:04:26;;;;;;;2.17;1.37;;;;;;;17.67;51.58;96319.25;5009970;28;25032;-72
2022/08/11 00:06:54;;;;;;;3.65;1.50;;;;;;;17.63;51.79;96317.00;5004261;28;25016;-73
2022/08/11 00:09:31;;;;;;;1.52;1.25;;;;;;;17.59;51.68;96311.19;5009546;28;25001;-71
2022/08/11 00:11:59;;;;;;;2.33;1.60;;;;;;;17.61;51.68;96311.91;5005052;28;24960;-73
2022/08/11 00:14:29;;;;;;;2.70;1.50;;;;;;;17.53;52.26;96311.69;5008808;28;24445;-72
2022/08/11 00:16:58;;;;;;;2.53;1.67;;;;;;;17.42;52.44;96309.13;5010386;28;24439;-72
2022/08/11 00:19:28;;;;;;;2.28;1.35;;;;;;;17.46;52.18;96307.91;5002903;28;24433;-72
2022/08/11 00:21:56;;;;;;;2.20;1.63;;;;;;;17.41;52.50;96307.47;5010386;28;24879;-71
2022/08/11 00:24:23;;;;;;;2.33;1.50;;;;;;;17.34;52.73;96309.75;5010429;28;24510;-71
2022/08/11 00:26:51;;;;;;;3.00;1.50;;;;;;;17.18;53.19;96312.78;5005133;28;24527;-72
2022/08/11 00:29:19;;;;;;;3.33;1.52;;;;;;;17.11;53.40;96309.00;5007245;28;24479;-72
2022/08/11 00:31:50;;;;;;;3.17;1.50;;;;;;;17.03;54.31;96310.56;5005845;28;24435;-72
2022/08/11 00:34:20;;;;;;;3.50;1.70;;;;;;;16.95;54.49;96316.41;5009269;28;24543;-72
2022/08/11 00:36:50;;;;;;;2.60;1.55;;;;;;;16.84;54.82;96313.81;5010464;28;24432;-71
2022/08/11 00:39:19;;;;;;;3.15;1.50;;;;;;;16.63;55.19;96319.75;5008109;28;24440;-72
2022/08/11 00:41:59;;;;;;;2.65;1.60;;;;;;;16.57;55.29;96314.97;5002797;28;24447;-71
2022/08/11 00:44:36;;;;;;;2.45;1.10;;;;;;;16.26;56.44;96320.94;5009160;28;24989;-72
2022/08/11 00:47:17;;;;;;;1.35;1.25;;;;;;;16.04;57.26;96317.34;5010122;28;24438;-72
2022/08/11 00:49:52;;;;;;;3.17;1.90;;;;;;;16.11;56.91;96322.94;5009333;28;25023;-73
2022/08/11 00:52:33;;;;;;;3.05;1.60;;;;;;;15.96;57.42;96320.53;5005936;28;24468;-71
2022/08/11 00:55:56;;;;;;;3.35;1.42;;;;;;;15.89;57.60;96321.94;5009792;28;25004;-72
2022/08/11 00:58:47;;;;;;;2.25;1.60;;;;;;;15.87;57.95;96317.78;5006478;28;24440;-71
2022/08/11 01:01:25;;;;;;;5.35;1.75;;;;;;;15.90;57.90;96318.38;5008890;28;24491;-72
2022/08/11 01:04:14;;;;;;;1.93;1.40;;;;;;;15.97;57.43;96306.53;5003170;28;25044;-72
2022/08/11 01:07:05;;;;;;;2.23;1.90;;;;;;;16.08;57.16;96316.16;5008699;28;24440;-72
2022/08/11 01:09:48;;;;;;;2.90;1.80;;;;;;;16.27;55.93;96317.38;5001095;28;24543;-71
2022/08/11 01:12:24;;;;;;;2.90;1.50;;;;;;;16.32;56.12;96318.69;5009891;28;24798;-72
2022/08/11 01:15:15;;;;;;;1.90;1.40;;;;;;;16.38;55.87;96315.59;5009693;28;24436;-71
2022/08/11 01:18:24;;;;;;;5.80;1.70;;;;;;;16.27;56.55;96312.13;5000359;28;24774;-70
2022/08/11 01:21:22;;;;;;;4.53;1.70;;;;;;;16.30;56.75;96319.75;4972822;28;24471;-72
2022/08/11 01:24:27;;;;;;;3.92;1.55;;;;;;;16.02;57.98;96315.78;4976688;28;24520;-71
2022/08/11 01:27:13;;;;;;;3.72;1.42;;;;;;;15.99;58.01;96316.03;4998242;28;24440;-72
2022/08/11 01:30:10;;;;;;;2.78;1.70;;;;;;;15.83;58.51;96311.94;5001164;28;24483;-71
2022/08/11 01:33:26;;;;;;;3.38;1.52;;;;;;;15.73;58.48;96309.22;5007802;28;24432;-71
2022/08/11 01:36:42;;;;;;;3.05;1.50;;;;;;;15.64;58.83;96311.63;5008936;28;24482;-72
2022/08/11 01:39:46;;;;;;;2.15;1.30;;;;;;;15.57;59.19;96313.84;5001587;28;24495;-73
2022/08/11 01:45:50;;;;;;;4.63;1.90;;;;;;;15.60;59.38;96305.81;4971442;28;24521;-72
2022/08/11 01:48:28;;;;;;;3.50;1.50;;;;;;;15.61;59.17;96301.41;5008727;28;25059;-71
2022/08/11 01:51:08;;;;;;;9.88;1.70;;;;;;;15.59;59.23;96314.59;5005261;28;24460;-71
2022/08/11 01:53:51;;;;;;;5.30;1.73;;;;;;;15.60;59.27;96315.41;5005125;28;24517;-71
2022/08/11 01:56:42;;;;;;;1.50;1.40;;;;;;;15.54;59.46;96301.06;5007029;28;24432;-72
2022/08/11 01:59:15;;;;;;;4.70;1.48;;;;;;;15.59;59.15;96304.16;5005547;28;24977;-70
2022/08/11 02:01:57;;;;;;;2.33;1.53;;;;;;;15.67;58.87;96304.44;5004819;28;24440;-73
2022/08/11 02:04:31;;;;;;;2.97;1.63;;;;;;;15.68;58.86;96297.44;5008628;28;24448;-73
2022/08/11 02:07:03;;;;;;;2.00;1.42;;;;;;;15.73;58.80;96295.31;5003663;28;24556;-73
2022/08/11 02:09:51;;;;;;;2.65;1.55;;;;;;;15.73;59.08;96300.53;5004906;28;24452;-73
2022/08/11 02:12:31;;;;;;;1.75;1.60;;;;;;;15.67;59.11;96296.59;5008852;28;24479;-71
2022/08/11 02:15:11;;;;;;;1.73;1.30;;;;;;;15.67;59.11;96290.56;5009071;28;24441;-71
2022/08/11 02:17:59;;;;;;;2.00;1.63;;;;;;;15.69;58.93;96296.50;5008935;28;24945;-71
2022/08/11 02:23:40;;;;;;;3.60;1.70;;;;;;;15.79;58.95;96297.47;5012940;28;24471;-71
2022/08/11 02:26:15;;;;;;;3.13;1.48;;;;;;;15.76;59.16;96287.25;5012061;28;24455;-71
2022/08/11 02:29:03;;;;;;;4.93;1.70;;;;;;;15.76;59.46;96286.41;5006996;28;24838;-73
2022/08/11 02:34:38;;;;;;;2.65;1.98;;;;;;;15.72;59.62;96277.97;5010732;28;24845;-72
2022/08/11 02:37:16;;;;;;;1.90;1.42;;;;;;;15.59;60.34;96285.88;5012619;28;24527;-71
2022/08/11 02:40:09;;;;;;;3.03;1.80;;;;;;;15.45;60.69;96283.44;5008116;28;24433;-72
2022/08/11 02:42:42;;;;;;;2.25;1.48;;;;;;;15.43;60.44;96277.53;5011897;28;24447;-71
2022/08/11 02:45:29;;;;;;;2.88;1.77;;;;;;;15.32;60.85;96275.72;5004976;28;24449;-71
2022/08/11 02:50:58;;;;;;;1.92;1.67;;;;;;;15.17;61.40;96277.66;5010724;28;25028;-73
2022/08/11 02:53:37;;;;;;;3.47;1.50;;;;;;;15.22;60.93;96275.53;5012292;28;21299;-72
2022/08/11 02:56:09;;;;;;;3.42;1.67;;;;;;;15.07;61.52;96279.28;5011742;28;24555;-71
2022/08/11 03:01:43;;;;;;;3.88;1.90;;;;;;;15.11;61.05;96270.28;5007965;28;24436;-71
2022/08/11 03:04:18;;;;;;;2.05;1.60;;;;;;;14.83;62.15;96274.06;5011403;28;24443;-72
2022/08/11 03:06:50;;;;;;;2.23;1.50;;;;;;;14.76;62.26;96281.47;5007941;28;24524;-71
2022/08/11 03:09:24;;;;;;;3.03;1.80;;;;;;;14.93;62.47;96282.88;5004921;28;24429;-71
2022/08/11 03:17:46;;;;;;;4.67;2.00;;;;;;;14.38;64.51;96280.69;5007986;28;24432;-70
2022/08/11 03:20:24;;;;;;;2.00;1.70;;;;;;;14.35;65.01;96276.56;5009560;28;24936;-72
2022/08/11 03:22:58;;;;;;;3.97;1.88;;;;;;;14.44;64.25;96275.06;5000591;28;24436;-72
2022/08/11 03:25:31;;;;;;;2.42;1.90;;;;;;;14.50;64.41;96277.28;5009710;28;24447;-71
2022/08/11 03:28:12;;;;;;;1.60;1.50;;;;;;;14.56;63.96;96279.44;5007888;28;24544;-72
2022/08/11 03:30:48;;;;;;;2.78;1.60;;;;;;;14.58;63.92;96274.13;5008903;28;24471;-71
2022/08/11 03:36:36;;;;;;;2.67;1.80;;;;;;;14.64;63.77;96282.34;5011244;28;24432;-71
2022/08/11 03:39:12;;;;;;;2.90;1.80;;;;;;;14.50;64.50;96290.31;5010544;28;24443;-71
2022/08/11 03:41:47;;;;;;;3.50;1.75;;;;;;;14.42;64.88;96289.97;5010518;28;24488;-72
2022/08/11 03:44:32;;;;;;;3.05;1.83;;;;;;;14.52;64.46;96291.84;5011282;28;24436;-72
2022/08/11 03:47:14;;;;;;;2.93;1.90;;;;;;;14.52;64.69;96293.63;5004356;28;25006;-72
2022/08/11 03:50:03;;;;;;;2.63;1.88;;;;;;;14.48;64.81;96292.97;5009425;28;24456;-72
2022/08/11 03:52:51;;;;;;;2.58;1.60;;;;;;;14.51;64.56;96292.81;5009370;28;24996;-71
2022/08/11 03:55:28;;;;;;;3.20;1.88;;;;;;;14.63;64.54;96298.91;5004985;28;24451;-72
2022/08/11 03:58:28;;;;;;;3.75;2.08;;;;;;;14.81;63.58;96295.97;5010231;28;24452;-72
2022/08/11 04:01:37;;;;;;;3.55;1.95;;;;;;;14.66;64.48;96296.09;5010451;28;24877;-72
2022/08/11 04:04:29;;;;;;;1.88;1.58;;;;;;;14.57;65.07;96293.31;5009846;28;24437;-71
2022/08/11 04:07:42;;;;;;;3.00;1.75;;;;;;;14.58;64.41;96288.00;5009488;28;24532;-71
2022/08/11 04:10:50;;;;;;;2.67;1.88;;;;;;;14.61;64.51;96293.00;5011346;28;24459;-72
2022/08/11 04:13:51;;;;;;;1.85;1.75;;;;;;;14.60;64.84;96291.31;5005939;28;24494;-72
2022/08/11 04:16:43;;;;;;;2.53;1.60;;;;;;;14.59;64.80;96291.44;5009193;28;24843;-72
2022/08/11 04:19:53;;;;;;;3.60;1.92;;;;;;;14.62;64.62;96293.84;5008662;28;24444;-72
2022/08/11 04:22:47;;;;;;;4.28;2.00;;;;;;;14.68;64.86;96285.56;5009747;28;24437;-72
2022/08/11 04:25:43;;;;;;;6.07;2.10;;;;;;;14.76;64.63;96294.53;5008464;28;24452;-73
2022/08/11 04:28:40;;;;;;;3.55;1.90;;;;;;;14.69;64.59;96292.47;5003012;28;24464;-74
2022/08/11 04:31:36;;;;;;;4.32;2.05;;;;;;;14.52;65.37;96289.25;5000976;28;24456;-73
2022/08/11 04:34:40;;;;;;;2.05;1.77;;;;;;;14.57;65.47;96288.91;5008447;28;24440;-73
2022/08/11 04:37:35;;;;;;;4.03;1.58;;;;;;;14.60;65.42;96293.09;5004154;28;24810;-74
2022/08/11 04:40:52;;;;;;;2.55;1.80;;;;;;;14.64;65.35;96291.94;5005117;28;24440;-73
2022/08/11 04:44:00;;;;;;;2.40;1.80;;;;;;;14.65;65.67;96289.22;5002520;28;24448;-71
2022/08/11 04:46:59;;;;;;;2.60;1.85;;;;;;;14.58;66.22;96292.38;5010158;28;24429;-72
2022/08/11 05:02:30;;;;;;;4.43;2.15;;;;;;;14.65;68.24;96291.84;5001257;28;24435;-72
2022/08/11 05:08:36;;;;;;;3.13;2.10;;;;;;;14.71;68.70;96298.38;5006504;28;24447;-72
2022/08/11 05:11:38;;;;;;;3.57;2.00;;;;;;;14.79;69.70;96303.88;4965863;28;24508;-71
2022/08/11 05:36:57;;;;;;;4.40;2.50;;;;;;;16.04;63.21;96300.84;5005778;28;25105;-71
2022/08/11 05:56:19;;;;;;;3.30;2.22;;;;;;;17.15;60.19;96297.31;5013297;28;24443;-72
2022/08/11 05:58:49;;;;;;;4.10;2.47;;;;;;;17.33;61.29;96302.03;5011588;28;24535;-72
2022/08/11 06:01:24;;;;;;;3.30;2.23;;;;;;;17.49;59.07;96299.81;5012554;28;24447;-72
2022/08/11 06:06:39;;;;;;;4.40;2.35;;;;;;;17.55;58.57;96301.94;5012844;28;25040;-70
2022/08/11 06:09:06;;;;;;;2.60;1.95;;;;;;;17.58;57.71;96303.47;5011774;28;24440;-74
2022/08/11 06:11:38;;;;;;;6.68;2.90;;;;;;;17.51;58.02;96304.94;5008006;28;24471;-73
2022/08/11 06:14:06;;;;;;;11.20;2.65;;;;;;;17.46;58.40;96305.28;5012292;28;24444;-72
2022/08/11 06:16:35;;;;;;;8.32;2.83;;;;;;;17.82;57.85;96295.38;5012601;28;24436;-72
2022/08/11 06:19:03;;;;;;;4.28;2.33;;;;;;;17.90;57.71;96298.19;5012564;28;24435;-75
2022/08/11 06:21:33;;;;;;;4.15;2.38;;;;;;;18.16;56.69;96298.63;5012055;28;24440;-74
2022/08/11 06:24:01;;;;;;;4.65;2.40;;;;;;;18.52;57.00;96292.03;5012757;28;24436;-74
2022/08/11 06:26:27;;;;;;;5.32;2.42;;;;;;;19.00;56.65;96299.25;5012566;28;24439;-72
2022/08/11 06:29:00;;;;;;;4.93;2.30;;;;;;;19.25;57.13;96304.94;5012789;28;24552;-72
2022/08/11 06:31:28;;;;;;;8.10;3.25;;;;;;;19.36;53.72;96296.13;5012315;28;24826;-73
2022/08/11 06:34:07;;;;;;;4.40;2.40;;;;;;;19.47;53.75;96301.25;5007237;28;24444;-72
2022/08/11 06:36:38;;;;;;;3.50;2.38;;;;;;;19.78;53.34;96300.13;5011520;28;24436;-72
2022/08/11 06:39:17;;;;;;;5.63;2.38;;;;;;;19.78;51.84;96304.56;5007860;28;24458;-74
2022/08/11 06:41:49;;;;;;;3.85;2.30;;;;;;;20.08;54.48;96300.09;5012429;28;24440;-74
2022/08/11 06:44:23;;;;;;;3.93;2.20;;;;;;;20.56;51.56;96299.97;5004565;28;24440;-73
2022/08/11 06:46:53;;;;;;;5.47;2.38;;;;;;;20.72;52.06;96300.16;5008029;28;24429;-73
2022/08/11 06:52:12;;;;;;;4.55;2.30;;;;;;;21.12;49.27;96306.03;5012129;28;24467;-73
2022/08/11 06:54:43;;;;;;;4.40;2.15;;;;;;;21.03;49.04;96295.41;5012099;28;24437;-71
2022/08/11 07:02:49;;;;;;;5.13;2.33;;;;;;;22.04;45.24;96286.44;5005493;28;24960;-75
2022/08/11 07:05:22;;;;;;;5.72;2.15;;;;;;;22.44;45.33;96294.63;5008160;28;24428;-73
2022/08/11 07:17:41;;;;;;;4.65;2.08;;;;;;;23.01;43.44;96295.88;5011291;28;24775;-74
2022/08/11 07:28:55;;;;;;;4.10;2.30;;;;;;;23.46;40.89;96299.94;5011407;28;24478;-71
2022/08/11 07:31:26;;;;;;;2.75;1.92;;;;;;;23.55;41.57;96296.34;5010755;28;24467;-74
2022/08/11 07:33:59;;;;;;;5.25;2.38;;;;;;;23.56;40.82;96296.16;5009574;28;24451;-74
2022/08/11 07:36:28;;;;;;;4.22;2.40;;;;;;;23.56;40.70;96295.34;5010835;28;24444;-75
2022/08/11 07:38:57;;;;;;;4.90;2.08;;;;;;;23.88;41.52;96299.84;5010345;28;24432;-72
2022/08/11 07:41:27;;;;;;;4.72;2.00;;;;;;;24.06;40.83;96295.19;5008943;28;24503;-75
2022/08/11 07:44:07;;;;;;;3.75;2.03;;;;;;;24.00;39.68;96292.41;5009228;28;25009;-75
2022/08/11 07:52:27;;;;;;;4.68;1.90;;;;;;;24.15;39.81;96288.91;4987452;28;25161;-78
2022/08/11 07:54:56;;;;;;;6.90;2.28;;;;;;;23.74;39.55;96285.47;4989036;28;25566;-75
2022/08/11 08:19:24;;;;;;;3.03;1.98;;;;;;;24.89;37.57;96279.94;5009837;28;24447;-73
2022/08/11 08:21:51;;;;;;;6.65;2.10;;;;;;;24.84;36.96;96270.69;5010537;28;24444;-74
2022/08/11 08:24:19;;;;;;;3.78;2.13;;;;;;;24.89;36.50;96272.81;5009842;28;24440;-75
2022/08/11 08:27:02;;;;;;;2.80;1.95;;;;;;;24.96;35.54;96278.25;5005835;28;24539;-75
2022/08/11 08:32:20;;;;;;;3.40;1.90;;;;;;;24.87;35.47;96272.97;5001156;28;24499;-74
2022/08/11 08:34:49;;;;;;;2.60;1.85;;;;;;;24.79;35.20;96275.66;5010488;28;24556;-74
2022/08/11 08:37:18;;;;;;;3.72;1.80;;;;;;;24.66;35.30;96277.19;5004194;28;24973;-74
2022/08/11 08:39:45;;;;;;;3.30;2.00;;;;;;;24.41;35.78;96273.81;5002977;28;24429;-74
2022/08/11 08:42:19;;;;;;;3.08;1.80;;;;;;;24.79;36.12;96285.44;5008098;28;24491;-73
2022/08/11 08:44:54;;;;;;;5.68;1.92;;;;;;;24.77;35.47;96280.31;5007871;28;24499;-74
2022/08/11 08:47:22;;;;;;;3.70;1.88;;;;;;;24.86;34.76;96278.44;5003450;28;24443;-75
2022/08/11 08:49:53;;;;;;;3.00;1.97;;;;;;;25.05;34.86;96282.50;5005701;28;24443;-75
2022/08/11 08:52:22;;;;;;;3.72;2.13;;;;;;;25.35;33.76;96280.84;5007699;28;24820;-76
2022/08/11 08:54:53;;;;;;;7.07;2.10;;;;;;;25.47;34.35;96282.09;5010055;28;24437;-76
2022/08/11 08:57:23;;;;;;;2.45;1.83;;;;;;;25.47;33.51;96282.09;5001595;28;24822;-73
2022/08/11 08:59:51;;;;;;;2.28;1.83;;;;;;;25.37;33.51;96280.69;5009496;28;25009;-73
2022/08/11 09:02:19;;;;;;;2.90;2.03;;;;;;;25.44;33.95;96289.56;5008398;28;25119;-74
2022/08/11 09:04:47;;;;;;;3.85;2.03;;;;;;;25.47;34.36;96287.38;5002328;28;24527;-74
2022/08/11 09:07:16;;;;;;;3.35;1.83;;;;;;;25.80;33.85;96276.56;5007486;28;24519;-74
2022/08/11 09:09:46;;;;;;;2.70;1.88;;;;;;;25.86;32.84;96283.00;5002995;28;24436;-74
2022/08/11 09:12:14;;;;;;;3.33;1.90;;;;;;;25.89;33.38;96280.81;5009365;28;24471;-74
2022/08/11 09:15:02;;;;;;;3.77;2.10;;;;;;;25.99;32.97;96278.75;5006239;28;24436;-74
2022/08/11 09:17:30;;;;;;;5.20;2.33;;;;;;;26.10;33.07;96287.25;5009740;28;24439;-73
2022/08/11 09:19:59;;;;;;;6.40;2.38;;;;;;;25.88;32.68;96279.16;5008790;28;24440;-72
2022/08/11 09:27:56;;;;;;;2.80;1.83;;;;;;;26.09;32.94;96290.91;5003491;28;24452;-74
2022/08/11 09:30:26;;;;;;;5.00;2.20;;;;;;;26.04;32.81;96281.66;5012193;28;24842;-74
2022/08/11 09:32:56;;;;;;;8.40;2.00;;;;;;;26.28;30.71;96293.88;5013470;28;24623;-73
2022/08/11 09:35:24;;;;;;;4.85;2.08;;;;;;;26.50;31.48;96291.34;5008654;28;24468;-72
2022/08/11 09:40:36;;;;;;;4.10;1.90;;;;;;;25.94;32.11;96278.44;5013120;28;24675;-69
2022/08/11 09:45:53;;;;;;;2.00;1.50;;;;;;;26.47;31.64;96291.72;5010093;28;24491;-70
2022/08/11 09:48:22;;;;;;;10.88;1.90;;;;;;;26.53;30.28;96277.72;5013055;28;24520;-71
2022/08/11 09:50:51;;;;;;;2.00;1.63;;;;;;;26.63;29.83;96282.75;5012627;28;24471;-69
2022/08/11 09:53:19;;;;;;;4.05;2.00;;;;;;;26.64;29.69;96279.09;5013639;28;24494;-70
2022/08/11 09:55:46;;;;;;;6.60;1.75;;;;;;;26.84;29.31;96272.19;5013237;28;24436;-70
2022/08/11 09:58:13;;;;;;;2.28;1.70;;;;;;;26.64;29.50;96276.44;5007685;28;24443;-70
2022/08/11 10:00:40;;;;;;;2.85;1.65;;;;;;;27.00;29.71;96274.66;5012898;28;24456;-69
2022/08/11 10:03:11;;;;;;;2.83;1.80;;;;;;;26.92;29.01;96281.88;5002798;28;24440;-68
2022/08/11 10:08:28;;;;;;;3.40;1.70;;;;;;;26.58;29.78;96283.28;5010207;28;24443;-71
2022/08/11 10:10:56;;;;;;;2.30;1.70;;;;;;;26.66;29.72;96277.91;5004375;28;24487;-71
2022/08/11 10:13:32;;;;;;;3.20;2.00;;;;;;;26.73;29.21;96278.78;5012718;28;24592;-69
2022/08/11 10:16:01;;;;;;;5.40;1.63;;;;;;;26.90;29.68;96270.63;5012778;28;24447;-70
2022/08/11 10:18:48;;;;;;;4.50;1.90;;;;;;;27.34;28.32;96275.88;5004586;28;25080;-70
2022/08/11 10:21:23;;;;;;;3.25;1.80;;;;;;;27.66;29.08;96276.38;5004385;28;24541;-71
2022/08/11 10:26:53;;;;;;;4.15;2.33;;;;;;;27.50;29.58;96274.78;5012409;28;24530;-70
2022/08/11 10:34:54;;;;;;;6.43;1.90;;;;;;;27.36;29.72;96260.53;5012156;28;24436;-71
2022/08/11 10:37:24;;;;;;;2.58;1.70;;;;;;;27.59;30.21;96252.38;5011568;28;24464;-71
2022/08/11 10:39:52;;;;;;;2.80;1.80;;;;;;;27.39;29.13;96262.81;5004743;28;25045;-70
2022/08/11 10:47:33;;;;;;;2.63;1.85;;;;;;;27.37;29.86;96240.09;5012574;28;24490;-72
2022/08/11 10:47:53;;;;;;;5.57;1.87;;;;;;;27.32;29.18;96234.50;5012046;28;24431;-74
2022/08/11 10:58:47;;;;;;;3.03;1.90;;;;;;;27.63;28.50;96251.00;5003859;28;24444;-73
2022/08/11 11:01:14;;;;;;;4.35;1.80;;;;;;;27.40;28.30;96237.03;5011531;28;24479;-72
2022/08/11 11:03:42;;;;;;;6.43;1.73;;;;;;;27.47;28.36;96235.25;5006743;28;24439;-72
2022/08/11 11:06:24;;;;;;;6.13;1.83;;;;;;;27.63;27.87;96218.25;5012133;28;24432;-70
2022/08/11 11:08:56;;;;;;;3.83;1.75;;;;;;;27.92;27.96;96228.75;5000021;28;24436;-70
2022/08/11 11:17:54;;;;;;;3.28;1.80;;;;;;;28.06;28.16;96228.81;5011400;28;24460;-70
2022/08/11 11:19:47;;;;;;;6.00;2.03;;;;;;;27.95;28.80;96228.31;5004089;28;25008;-71
2022/08/11 11:25:08;;;;;;;4.75;2.15;;;;;;;27.84;29.13;96220.88;5010678;28;24582;-70
2022/08/11 11:27:48;;;;;;;3.10;1.63;;;;;;;27.77;28.90;96221.84;5010558;28;24429;-71
2022/08/11 11:30:16;;;;;;;3.30;1.70;;;;;;;27.98;28.55;96213.81;5011352;28;24475;-72
2022/08/11 11:32:57;;;;;;;2.42;1.67;;;;;;;27.87;27.95;96211.69;5002071;28;24456;-71
2022/08/11 11:35:38;;;;;;;4.50;2.03;;;;;;;27.73;29.18;96211.53;5012236;28;24436;-70
2022/08/11 11:38:08;;;;;;;2.22;1.70;;;;;;;27.53;28.31;96213.22;5007316;28;24450;-70
2022/08/11 11:40:37;;;;;;;3.28;1.63;;;;;;;27.65;28.87;96208.22;5011264;28;24483;-72
2022/08/11 11:43:04;;;;;;;2.70;1.60;;;;;;;27.68;28.81;96208.66;5011957;28;25000;-72
2022/08/11 11:45:31;;;;;;;4.10;1.70;;;;;;;27.78;27.48;96197.72;5009974;28;24436;-71
2022/08/11 11:47:59;;;;;;;3.10;1.70;;;;;;;27.58;28.41;96202.00;5011866;28;24850;-71
2022/08/11 11:50:28;;;;;;;3.35;2.10;;;;;;;27.55;28.18;96194.41;5010078;28;24444;-72
2022/08/11 11:52:55;;;;;;;5.65;1.77;;;;;;;27.52;28.21;96205.44;5004568;28;24448;-72
2022/08/11 11:55:26;;;;;;;7.35;1.95;;;;;;;27.82;29.00;96196.31;5011748;28;24436;-72
2022/08/11 12:03:25;;;;;;;5.00;1.98;;;;;;;27.81;27.04;96186.69;5008494;28;24865;-71
2022/08/11 12:05:52;;;;;;;15.07;2.00;;;;;;;27.94;28.03;96192.09;5011214;28;24436;-68
2022/08/11 12:08:20;;;;;;;6.43;1.50;;;;;;;27.71;28.12;96197.63;5006424;28;24436;-71
2022/08/11 12:13:39;;;;;;;3.90;2.00;;;;;;;27.24;27.34;96200.88;5007410;28;25086;-71
2022/08/11 12:13:39;;;;;;;3.53;1.80;;;;;;;27.23;27.84;96193.94;5010402;28;24499;-71
2022/08/11 12:16:08;;;;;;;3.85;1.73;;;;;;;26.99;28.35;96187.91;5010942;28;24432;-69
2022/08/11 12:18:35;;;;;;;2.70;1.70;;;;;;;27.27;28.50;96179.22;5010620;28;24486;-71
2022/08/11 12:21:03;;;;;;;3.00;1.90;;;;;;;27.45;28.18;96176.94;5006713;28;24847;-70
2022/08/11 12:29:04;;;;;;;2.42;1.60;;;;;;;27.47;28.97;96182.06;5008817;28;25016;-71
2022/08/11 12:31:32;;;;;;;4.85;1.80;;;;;;;27.61;27.98;96177.69;5009499;28;24444;-71
2022/08/11 12:34:03;;;;;;;8.13;2.00;;;;;;;27.46;28.72;96181.25;5010921;28;24447;-71
2022/08/11 12:36:33;;;;;;;2.58;1.50;;;;;;;27.14;29.01;96173.78;5002410;28;24440;-71
2022/08/11 12:39:00;;;;;;;3.17;1.80;;;;;;;27.38;28.23;96169.94;5010529;28;24439;-70
2022/08/11 12:47:01;;;;;;;3.03;1.58;;;;;;;27.77;28.46;96168.63;5009446;28;25043;-71
2022/08/11 12:52:23;;;;;;;3.25;1.67;;;;;;;27.44;27.31;96162.00;5006314;28;24487;-71
2022/08/11 12:54:57;;;;;;;3.17;1.80;;;;;;;27.19;27.39;96164.25;5009516;28;24447;-70
2022/08/11 13:05:48;;;;;;;2.58;1.55;;;;;;;27.68;27.34;96138.66;5002116;28;24430;-70
2022/08/11 13:08:16;;;;;;;5.68;1.58;;;;;;;27.39;26.68;96134.31;5004815;28;24885;-71
2022/08/11 13:13:30;;;;;;;3.92;1.70;;;;;;;27.61;26.65;96145.75;5008090;28;24451;-72
2022/08/11 13:15:58;;;;;;;3.63;1.50;;;;;;;27.43;27.92;96136.41;5003567;28;24440;-70
2022/08/11 13:18:26;;;;;;;4.20;1.60;;;;;;;27.56;27.02;96134.88;5003216;28;24482;-70
2022/08/11 13:20:54;;;;;;;2.65;1.58;;;;;;;27.59;27.64;96140.63;5008181;28;24451;-71
2022/08/11 13:23:22;;;;;;;3.33;1.50;;;;;;;27.45;27.34;96138.88;5007836;28;24491;-70
2022/08/11 13:25:49;;;;;;;2.73;1.73;;;;;;;27.30;27.30;96133.66;5004724;28;24456;-70
2022/08/11 13:28:18;;;;;;;3.58;1.42;;;;;;;27.36;27.24;96135.53;5005595;28;24471;-72
2022/08/11 13:33:32;;;;;;;3.22;1.58;;;;;;;27.54;26.64;96126.25;5025693;28;24988;-71
2022/08/11 13:35:58;;;;;;;2.00;1.48;;;;;;;27.50;26.65;96123.97;5023496;28;24508;-71
2022/08/11 13:38:26;;;;;;;1.98;1.50;;;;;;;27.60;26.35;96114.84;5026790;28;24443;-71
2022/08/11 13:40:54;;;;;;;2.80;1.50;;;;;;;27.69;26.01;96116.31;5028553;28;25061;-71
2022/08/11 13:43:23;;;;;;;4.93;1.70;;;;;;;27.82;25.98;96124.44;5037660;28;24439;-71
2022/08/11 13:46:17;;;;;;;2.00;1.55;;;;;;;27.61;25.59;96111.97;5040488;28;25022;-71
2022/08/11 13:48:41;;;;;;;2.58;1.38;;;;;;;27.69;26.09;96116.31;5039004;28;24416;-71
2022/08/11 13:53:53;;;;;;;4.25;1.65;;;;;;;27.68;25.57;96101.38;5029764;28;25007;-71
2022/08/11 13:56:22;;;;;;;2.28;1.42;;;;;;;27.74;25.57;96105.94;5036365;28;24587;-71
2022/08/11 13:58:49;;;;;;;2.00;1.35;;;;;;;27.66;24.13;96106.91;5033300;28;24462;-71
2022/08/11 14:01:19;;;;;;;3.40;1.58;;;;;;;27.91;24.53;96101.97;5037770;28;24462;-71
2022/08/11 14:03:47;;;;;;;5.43;1.67;;;;;;;27.59;24.00;96102.53;5027722;28;24435;-71
2022/08/11 14:06:15;;;;;;;3.05;1.52;;;;;;;27.53;25.23;96100.69;5041069;28;24466;-71
2022/08/11 14:08:43;;;;;;;2.50;1.55;;;;;;;27.53;25.39;96088.19;5036833;28;24988;-71
2022/08/11 14:13:57;;;;;;;3.55;1.65;;;;;;;27.50;26.12;96092.06;5029833;28;25073;-71
2022/08/11 14:16:31;;;;;;;3.22;1.60;;;;;;;27.69;26.19;96082.56;5045996;28;24435;-71
2022/08/11 14:19:02;;;;;;;3.92;1.77;;;;;;;27.88;25.61;96091.69;5043481;28;24809;-71
2022/08/11 14:24:17;;;;;;;2.47;1.55;;;;;;;27.60;25.38;96073.09;5043396;28;24585;-72
2022/08/11 14:26:48;;;;;;;4.53;1.70;;;;;;;27.76;25.15;96063.19;5033977;28;24446;-71
2022/08/11 14:29:16;;;;;;;3.67;1.70;;;;;;;27.71;24.81;96077.06;5044156;28;24439;-71
2022/08/11 14:31:47;;;;;;;3.45;1.70;;;;;;;27.84;24.89;96068.34;5039972;28;24439;-71
2022/08/11 14:34:20;;;;;;;1.70;1.30;;;;;;;27.85;24.18;96070.81;5036339;28;24798;-71
2022/08/11 14:36:51;;;;;;;3.28;1.67;;;;;;;27.76;24.91;96064.00;5033473;28;25025;-71
2022/08/11 14:39:19;;;;;;;2.88;1.40;;;;;;;27.73;25.27;96065.19;5041577;28;24530;-71
2022/08/11 14:47:22;;;;;;;3.00;1.42;;;;;;;27.90;25.33;96060.41;5039323;28;24482;-71
2022/08/11 14:49:50;;;;;;;3.90;1.55;;;;;;;27.86;24.64;96048.50;5031967;28;24435;-71
2022/08/11 14:52:19;;;;;;;2.72;1.40;;;;;;;27.78;25.38;96053.19;5035753;28;24460;-71
2022/08/11 14:57:36;;;;;;;3.25;1.70;;;;;;;27.93;24.69;96061.84;5041054;28;25070;-71
2022/08/11 15:00:06;;;;;;;3.38;1.40;;;;;;;27.89;25.24;96055.28;5038935;28;24446;-71
2022/08/11 15:05:23;;;;;;;2.00;1.50;;;;;;;27.59;24.71;96044.84;5033738;28;24790;-72
2022/08/11 15:07:51;;;;;;;2.42;1.40;;;;;;;27.38;25.34;96045.75;5034766;28;24443;-71
2022/08/11 15:10:19;;;;;;;3.60;1.30;;;;;;;27.78;25.24;96048.66;5031006;28;24439;-71
2022/08/11 15:12:47;;;;;;;7.40;1.70;;;;;;;27.64;25.36;96053.06;5043176;28;24459;-71
2022/08/11 15:18:01;;;;;;;4.07;1.55;;;;;;;27.60;24.77;96038.50;5009737;28;24435;-71
2022/08/11 15:26:00;;;;;;;5.00;1.50;;;;;;;27.71;25.06;96035.28;5031117;28;24451;-70
2022/08/11 15:45:46;;;;;;;4.43;1.25;;;;;;;27.64;25.05;96015.81;5039722;28;24531;-74
2022/08/11 15:48:01;;;;;;;3.63;1.60;;;;;;;27.67;24.75;96020.75;5038342;28;24486;-70
2022/08/11 15:50:32;;;;;;;3.50;1.60;;;;;;;27.62;24.96;96017.84;5044527;28;24581;-71
2022/08/11 15:53:02;;;;;;;2.35;1.27;;;;;;;27.40;25.26;96010.94;5044262;28;24459;-72
2022/08/11 15:55:31;;;;;;;2.80;1.48;;;;;;;27.64;25.14;96015.81;5040734;28;24876;-72
2022/08/11 16:06:26;;;;;;;4.60;1.70;;;;;;;27.79;24.63;96014.91;5032851;28;24859;-71
2022/08/11 16:08:55;;;;;;;3.50;1.58;;;;;;;27.73;24.75;96009.28;5041575;28;24442;-72
2022/08/11 16:11:23;;;;;;;2.83;1.30;;;;;;;27.53;24.51;96002.25;5039772;28;24485;-70
2022/08/11 16:16:37;;;;;;;3.75;1.35;;;;;;;27.45;23.70;96005.88;5041040;28;24439;-69
2022/08/11 16:19:08;;;;;;;2.40;1.15;;;;;;;27.52;24.00;96014.72;5047260;28;24980;-69
2022/08/11 16:21:38;;;;;;;3.05;1.52;;;;;;;27.48;24.57;96005.50;5040475;28;24451;-71
2022/08/11 16:24:09;;;;;;;19.17;1.45;;;;;;;27.51;23.78;96002.44;5039336;28;24494;-71
2022/08/11 16:26:39;;;;;;;3.35;1.45;;;;;;;27.42;24.98;96001.78;5032027;28;24444;-70
2022/08/11 16:29:07;;;;;;;1.67;1.40;;;;;;;27.43;24.83;96000.75;5034101;28;24481;-71
2022/08/11 16:31:36;;;;;;;2.22;1.25;;;;;;;27.49;23.67;96001.81;5034932;28;24436;-72
2022/08/11 16:34:04;;;;;;;2.53;1.45;;;;;;;27.46;23.34;96004.88;5042411;28;24463;-72
2022/08/11 16:39:18;;;;;;;5.10;1.20;;;;;;;27.48;23.74;96003.66;5037696;28;24431;-73
2022/08/11 16:47:19;;;;;;;19.63;1.55;;;;;;;27.07;24.83;96002.72;5031095;28;24483;-74
2022/08/11 16:49:48;;;;;;;2.55;1.42;;;;;;;26.96;24.60;95996.13;5034391;28;25000;-74
2022/08/11 16:52:15;;;;;;;3.00;1.37;;;;;;;26.93;24.20;95994.66;5038991;28;25042;-71